»·PEaware :: N503AM KBZN-KHLN

N503AM :: KBZN-KHLN

FLIGHT INFORMATION

Flight Status: Arrived
Operator: Privately registered:
United States
More flights under this callsign
Pilot: Gary H. (18965)
Aircraft: CESSNA 172 SKYHAWK
(C172)
More flights by this aircraft type
Origin: KBZN Gallatin
United States
Destination: KHLN Helena Regl
United States
More flights between these airports :: More routes between these airports
Route: +BZN6 BZN JUVGO
File this flight plan on PilotEdge
Remarks:
Altitude:
(Current/Filed)
12,000ft
Speed:
(Current/Filed)
110kts
Departed: 24-Feb-20 10:01 PM
Arrived: 24-Feb-20 11:08 PM
Distance/Time
Traveled:
60nm/1:07
Distance/Time
To Go:
Arrived

Flight Plot

Page will automatically refresh every two minutes.

Flight plan parsing failed; only flown route is shown


Map Options




Map Legend


Flown Route
Filed Route
Departure Airport
Arrival Airport
Navaid (VOR, NDB)
Fix

Horizontal Profiles

Position Reports

Time Latitude Longitude Heading Altitude Ground
Speed
24-Feb-20 21:44 45.774187 -111.153985 318 4461ft 0kts
24-Feb-20 21:45 45.774187 -111.153985 318 4461ft 0kts
24-Feb-20 21:46 45.774187 -111.153985 318 4461ft 0kts
24-Feb-20 21:47 45.774187 -111.153985 318 4461ft 0kts
24-Feb-20 21:48 45.774187 -111.153985 318 4461ft 0kts
24-Feb-20 21:49 45.774187 -111.153985 318 4461ft 0kts
24-Feb-20 21:50 45.774187 -111.153985 318 4461ft 0kts
24-Feb-20 21:51 45.774187 -111.153985 318 4461ft 0kts
24-Feb-20 21:52 45.774187 -111.153985 318 4461ft 0kts
24-Feb-20 21:53 45.774187 -111.153985 318 4461ft 0kts
24-Feb-20 21:54 45.774187 -111.153985 318 4461ft 0kts
24-Feb-20 21:55 45.776329 -111.154298 314 4457ft 16kts
24-Feb-20 21:56 45.781560 -111.161564 315 4446ft 33kts
24-Feb-20 21:57 45.787084 -111.167803 46 4431ft 10kts
24-Feb-20 21:58 45.787226 -111.167594 45 4431ft 0kts
24-Feb-20 21:59 45.787226 -111.167594 45 4431ft 0kts
24-Feb-20 22:00 45.781271 -111.157088 134 4592ft 80kts
24-Feb-20 22:01 45.761717 -111.153762 259 5228ft 101kts
24-Feb-20 22:02 45.759865 -111.193949 267 5907ft 102kts
24-Feb-20 22:03 45.752492 -111.233343 242 6608ft 105kts
24-Feb-20 22:04 45.738791 -111.270546 242 7291ft 105kts
24-Feb-20 22:06 45.724383 -111.306657 242 7970ft 103kts
24-Feb-20 22:07 45.709966 -111.341698 243 8649ft 100kts
24-Feb-20 22:08 45.695449 -111.376450 245 9236ft 103kts
24-Feb-20 22:09 45.680731 -111.411298 246 9815ft 101kts
24-Feb-20 22:10 45.666587 -111.445732 249 10339ft 101kts
24-Feb-20 22:11 45.673562 -111.466773 27 10731ft 85kts
24-Feb-20 22:12 45.685551 -111.435645 50 11173ft 90kts
24-Feb-20 22:13 45.697181 -111.403237 50 11556ft 92kts
24-Feb-20 22:14 45.708551 -111.370716 50 11916ft 93kts
24-Feb-20 22:15 45.720618 -111.336485 50 12005ft 99kts
24-Feb-20 22:16 45.733454 -111.300977 51 11993ft 101kts
24-Feb-20 22:17 45.746252 -111.264671 52 11979ft 102kts
24-Feb-20 22:18 45.758907 -111.228203 52 11964ft 102kts
24-Feb-20 22:19 45.771142 -111.192956 51 12018ft 100kts
24-Feb-20 22:20 45.787309 -111.164990 355 12023ft 87kts
24-Feb-20 22:21 45.811183 -111.173632 346 12013ft 89kts
24-Feb-20 22:22 45.835351 -111.182272 346 11996ft 90kts
24-Feb-20 22:23 45.859645 -111.190923 346 11978ft 90kts
24-Feb-20 22:24 45.883909 -111.199527 346 11959ft 90kts
24-Feb-20 22:25 45.907653 -111.207907 346 11994ft 89kts
24-Feb-20 22:26 45.931738 -111.216374 346 11974ft 90kts
24-Feb-20 22:27 45.955819 -111.224819 346 12014ft 85kts
24-Feb-20 22:27 45.975244 -111.231610 346 12027ft 88kts
24-Feb-20 22:29 46.003344 -111.241392 346 12001ft 89kts
24-Feb-20 22:29 46.023567 -111.248404 346 11981ft 90kts
24-Feb-20 22:30 46.047935 -111.256822 346 11956ft 90kts
24-Feb-20 22:32 46.076437 -111.266626 346 11925ft 90kts
24-Feb-20 22:32 46.096772 -111.273590 346 11903ft 90kts
24-Feb-20 22:33 46.121178 -111.281916 346 11907ft 90kts
24-Feb-20 22:35 46.149804 -111.291643 346 11916ft 90kts
24-Feb-20 22:35 46.170174 -111.298532 346 11922ft 90kts
24-Feb-20 22:36 46.193336 -111.306342 346 12045ft 86kts
24-Feb-20 22:37 46.217231 -111.314362 346 12054ft 89kts
24-Feb-20 22:38 46.241808 -111.322584 347 12027ft 90kts
24-Feb-20 22:39 46.266570 -111.330831 347 11973ft 93kts
24-Feb-20 22:40 46.291443 -111.339083 347 11975ft 90kts
24-Feb-20 22:41 46.315970 -111.347164 347 11976ft 90kts
24-Feb-20 22:42 46.340204 -111.356550 343 11978ft 90kts
24-Feb-20 22:43 46.364121 -111.367572 343 11977ft 89kts
24-Feb-20 22:44 46.387640 -111.378391 343 11975ft 88kts
24-Feb-20 22:45 46.411040 -111.389106 343 11969ft 87kts
24-Feb-20 22:46 46.435869 -111.400352 344 11672ft 92kts
24-Feb-20 22:47 46.457380 -111.410067 343 11584ft 81kts
24-Feb-20 22:48 46.479528 -111.419817 343 11581ft 83kts
24-Feb-20 22:49 46.501372 -111.429341 343 11573ft 80kts
24-Feb-20 22:50 46.515575 -111.450945 291 11580ft 89kts
24-Feb-20 22:51 46.521868 -111.488006 296 11106ft 93kts
24-Feb-20 22:52 46.530052 -111.524379 294 10493ft 93kts
24-Feb-20 22:53 46.536542 -111.556999 294 10057ft 77kts
24-Feb-20 22:54 46.543867 -111.590421 294 9370ft 94kts
24-Feb-20 22:55 46.549039 -111.626572 287 8787ft 88kts
24-Feb-20 22:56 46.554257 -111.661405 287 8180ft 88kts
24-Feb-20 22:57 46.560407 -111.695974 288 7587ft 88kts
24-Feb-20 22:58 46.566312 -111.729623 286 7088ft 83kts
24-Feb-20 22:59 46.571609 -111.760725 286 6682ft 76kts
24-Feb-20 23:00 46.573945 -111.787158 291 6400ft 67kts
24-Feb-20 23:01 46.578292 -111.813864 284 5972ft 68kts
24-Feb-20 23:02 46.582724 -111.840835 285 5505ft 67kts
24-Feb-20 23:03 46.587670 -111.867890 282 5152ft 72kts
24-Feb-20 23:04 46.592459 -111.897123 284 4890ft 79kts
24-Feb-20 23:05 46.597581 -111.927993 280 4360ft 75kts
24-Feb-20 23:06 46.601837 -111.955265 280 3953ft 63kts
24-Feb-20 23:07 46.603127 -111.970171 182 3850ft 0kts

Navigation Log

Ident Type
Flight plan parsing failed, navigation log unavailable